KBUF/BUF METAR and TAF weather

Enter ICAO airport designator
Station Type Date Time Source
KBUF METAR 2021/05/15 22:54 UTC NOAA

KBUF 152254Z 23006KT 10SM FEW060 SCT120 SCT250 19/M01 A3022 RMK AO2 SLP233 T01941006 $


Station Type Date Time Source
KBUF Decoded METAR 2021/05/15 22:54 UTC NOAA

GREATER BUFFALO INTERNATIONAL AIRPORT , NY, United States (KBUF) 42-56N 078-44W 225M
May 15, 2021 - 06:54 PM EDT / 2021.05.15 2254 UTC
Wind: from the SW (230 degrees) at 7 MPH (6 KT):0
Visibility: 10 mile(s):0
Sky conditions: partly cloudy
Temperature: 66.9 F (19.4 C)
Dew Point: 30.9 F (-0.6 C)
Relative Humidity: 25%
Pressure (altimeter): 30.22 in. Hg (1023 hPa)
ob: KBUF 152254Z 23006KT 10SM FEW060 SCT120 SCT250 19/M01 A3022 RMK AO2 SLP233 T01941006
cycle: 23

Station Type Date Time Source
KBUF TAF 2021/05/15 21:57 UTC NOAA

TAF
AMD KBUF 152054Z 1521/1618 25012KT P6SM FEW050 SCT250
FM152300 23006KT P6SM SCT100
FM160200 18004KT P6SM SCT100
FM161700 23008KT P6SM SCT080

Example: see airport list